Arcadia Highway — 3FQT4 — position and weather

sailwx.info

Track history (hours):
 
Tides and Currents Weather Stations Pressure Air Temp Water Temp Dewpoint Dewpoint Depression Visibility Wind Speed Wind Dir Waves Ship Positions

Arcadia Highway

Last reported at 2014-Nov-19 23:06 UTC. Time now 2014-Nov-26 10:07 UTC.
Position N 01°15' E 104°04'.

Length 179 m; draft 7.4 m.

Type: Cargo ship. MMSI: 354342000.

Date/timePositionNaut miles runAvg speedWind from/ knotsBaromVisibWave heightAir tempDewpointWater temp
2014-Nov-19 23:06N 01°15' E 104°04'915.8
2014-Nov-19 22:33N 01°13' E 103°56'10 9.8
2014-Nov-19 21:33N 01°08' E 103°47'8 0.2
2014-Nov-17 19:25N 01°16' E 103°44'2 2.0
2014-Nov-17 18:31N 01°17' E 103°45'0 0.1
2014-Nov-17 17:31N 01°17' E 103°45'0 0.0
2014-Nov-17 16:25N 01°17' E 103°45'0 0.0
2014-Nov-17 15:25N 01°17' E 103°45'0 0.1
2014-Nov-17 14:31N 01°17' E 103°45'0 0.1
2014-Nov-17 13:32N 01°17' E 103°45'0 0.0
2014-Nov-17 12:25N 01°17' E 103°45'0 0.0
2014-Nov-17 11:31N 01°17' E 103°45'0 0.0
2014-Nov-17 10:25N 01°17' E 103°45'0 0.0
2014-Nov-17 09:31N 01°17' E 103°45'2 2.6
2014-Nov-17 08:33N 01°15' E 103°47'7 7.2
2014-Nov-17 07:33N 01°16' E 103°54'0 0.3
2014-Nov-17 06:28N 01°16' E 103°54'0 0.1
2014-Nov-17 05:28N 01°16' E 103°54'0 0.0
2014-Nov-17 03:28N 01°16' E 103°54'0 0.0
2014-Nov-17 02:16N 01°16' E 103°54'0 0.0
2014-Nov-17 01:28N 01°16' E 103°54'0 0.0
2014-Nov-17 00:28N 01°16' E 103°54'0 0.0
2014-Nov-16 23:16N 01°16' E 103°54'0 0.0
2014-Nov-16 22:22N 01°16' E 103°54'0 0.1
2014-Nov-16 21:28N 01°16' E 103°54'0 0.1
2014-Nov-16 20:22N 01°16' E 103°54'0 0.0
2014-Nov-16 19:16N 01°16' E 103°54'0 0.0
2014-Nov-16 17:28N 01°16' E 103°54'0 0.0
2014-Nov-16 16:22N 01°16' E 103°54'0 0.0
2014-Nov-16 15:28N 01°16' E 103°54'0 0.0
2014-Nov-16 12:10N 01°16' E 103°54'0 0.0
2014-Nov-16 11:28N 01°16' E 103°54'0 0.0
2014-Nov-16 10:16N 01°16' E 103°54'0 0.0
2014-Nov-16 09:16N 01°16' E 103°54'0 0.0
2014-Nov-16 08:22N 01°16' E 103°54'0 0.1
2014-Nov-16 07:10N 01°16' E 103°54'0 0.1
2014-Nov-16 06:22N 01°16' E 103°54'0 0.1
2014-Nov-16 05:28N 01°16' E 103°54'1 0.2
2014-Nov-16 02:31N 01°16' E 103°53'2 2.3
2014-Nov-16 01:33N 01°13' E 103°54'7 6.3
2014-Nov-16 00:29N 01°15' E 104°00'0 0.2
2014-Nov-15 23:31N 01°15' E 104°01'9 9.8
2014-Nov-15 22:33N 01°17' E 104°10'1615.6
2014-Nov-15 21:30N 01°23' E 104°25'  
Track history (hours):
 
Tides and Currents Weather Stations Pressure Air Temp Water Temp Dewpoint Dewpoint Depression Visibility Wind Speed Wind Dir Waves Ship Positions

Arcadia Highway

Last reported at 2014-Nov-19 23:06 UTC. Time now 2014-Nov-26 10:07 UTC.
Position N 01°15' E 104°04'.

Length 179 m; draft 7.4 m.

Type: Cargo ship. MMSI: 354342000.

Date/timePositionNaut miles runAvg speedWind from/ knotsBaromVisibWave heightAir tempDewpointWater temp
2014-Nov-19 23:06N 01°15' E 104°04'915.8
2014-Nov-19 22:33N 01°13' E 103°56'10 9.8
2014-Nov-19 21:33N 01°08' E 103°47'8 0.2
2014-Nov-17 19:25N 01°16' E 103°44'2 2.0
2014-Nov-17 18:31N 01°17' E 103°45'0 0.1
2014-Nov-17 17:31N 01°17' E 103°45'0 0.0
2014-Nov-17 16:25N 01°17' E 103°45'0 0.0
2014-Nov-17 15:25N 01°17' E 103°45'0 0.1
2014-Nov-17 14:31N 01°17' E 103°45'0 0.1
2014-Nov-17 13:32N 01°17' E 103°45'0 0.0
2014-Nov-17 12:25N 01°17' E 103°45'0 0.0
2014-Nov-17 11:31N 01°17' E 103°45'0 0.0
2014-Nov-17 10:25N 01°17' E 103°45'0 0.0
2014-Nov-17 09:31N 01°17' E 103°45'2 2.6
2014-Nov-17 08:33N 01°15' E 103°47'7 7.2
2014-Nov-17 07:33N 01°16' E 103°54'0 0.3
2014-Nov-17 06:28N 01°16' E 103°54'0 0.1
2014-Nov-17 05:28N 01°16' E 103°54'0 0.0
2014-Nov-17 03:28N 01°16' E 103°54'0 0.0
2014-Nov-17 02:16N 01°16' E 103°54'0 0.0
2014-Nov-17 01:28N 01°16' E 103°54'0 0.0
2014-Nov-17 00:28N 01°16' E 103°54'0 0.0
2014-Nov-16 23:16N 01°16' E 103°54'0 0.0
2014-Nov-16 22:22N 01°16' E 103°54'0 0.1
2014-Nov-16 21:28N 01°16' E 103°54'0 0.1
2014-Nov-16 20:22N 01°16' E 103°54'0 0.0
2014-Nov-16 19:16N 01°16' E 103°54'0 0.0
2014-Nov-16 17:28N 01°16' E 103°54'0 0.0
2014-Nov-16 16:22N 01°16' E 103°54'0 0.0
2014-Nov-16 15:28N 01°16' E 103°54'0 0.0
2014-Nov-16 12:10N 01°16' E 103°54'0 0.0
2014-Nov-16 11:28N 01°16' E 103°54'0 0.0
2014-Nov-16 10:16N 01°16' E 103°54'0 0.0
2014-Nov-16 09:16N 01°16' E 103°54'0 0.0
2014-Nov-16 08:22N 01°16' E 103°54'0 0.1
2014-Nov-16 07:10N 01°16' E 103°54'0 0.1
2014-Nov-16 06:22N 01°16' E 103°54'0 0.1
2014-Nov-16 05:28N 01°16' E 103°54'1 0.2
2014-Nov-16 02:31N 01°16' E 103°53'2 2.3
2014-Nov-16 01:33N 01°13' E 103°54'7 6.3
2014-Nov-16 00:29N 01°15' E 104°00'0 0.2
2014-Nov-15 23:31N 01°15' E 104°01'9 9.8
2014-Nov-15 22:33N 01°17' E 104°10'1615.6
2014-Nov-15 21:30N 01°23' E 104°25'  

Dump ship's entire track history